Time;durP1;ratioP1;P1;durP2;ratioP2;P2;SDS_P1;SDS_P2;PMS_P1;PMS_P2;Temp;Humidity;BMP_temperature;BMP_pressure;BME280_temperature;BME280_humidity;BME280_pressure;Samples;Min_cycle;Max_cycle;Signal;HPM_P1;HPM_P2
2023/04/07 00:01:53;;;;;;;47.90;33.30;;;;;;;0.39;77.73;97040.48;108808;1253;103842;-70
2023/04/07 00:04:21;;;;;;;50.40;33.40;;;;;;;0.36;77.77;97037.73;108750;1254;101659;-70
2023/04/07 00:06:49;;;;;;;46.30;32.80;;;;;;;0.33;77.80;97035.36;108770;1253;100550;-70
2023/04/07 00:09:17;;;;;;;46.00;31.90;;;;;;;0.34;77.86;97036.14;108782;1253;95549;-70
2023/04/07 00:11:45;;;;;;;44.40;31.20;;;;;;;0.38;77.93;97037.42;108793;1253;96035;-70
2023/04/07 00:14:13;;;;;;;45.10;32.20;;;;;;;0.37;77.87;97035.34;108757;1253;103481;-70
2023/04/07 00:16:41;;;;;;;48.10;33.20;;;;;;;0.34;77.83;97035.97;108774;1252;101278;-70
2023/04/07 00:19:09;;;;;;;46.70;33.00;;;;;;;0.34;77.98;97029.13;108757;1252;100105;-69
2023/04/07 00:21:37;;;;;;;46.30;31.90;;;;;;;0.35;77.98;97022.80;108766;1253;95558;-70
2023/04/07 00:24:06;;;;;;;43.20;31.20;;;;;;;0.36;77.90;97021.45;108742;1253;95648;-70
2023/04/07 00:26:34;;;;;;;40.70;29.00;;;;;;;0.38;77.92;97022.39;108802;1252;112032;-69
2023/04/07 00:29:02;;;;;;;44.90;31.30;;;;;;;0.39;77.94;97023.27;108758;1253;101389;-70
2023/04/07 00:31:30;;;;;;;38.60;28.50;;;;;;;0.41;77.92;97026.10;108669;1253;100502;-70
2023/04/07 00:33:58;;;;;;;39.00;28.50;;;;;;;0.36;77.77;97022.00;108739;1252;95514;-70
2023/04/07 00:36:27;;;;;;;39.80;28.90;;;;;;;0.34;77.82;97016.89;108750;1254;96060;-69
2023/04/07 00:38:55;;;;;;;42.80;30.10;;;;;;;0.37;77.93;97013.56;108886;1253;103622;-70
2023/04/07 00:41:23;;;;;;;46.70;30.60;;;;;;;0.41;77.93;97014.62;108630;1253;101583;-70
2023/04/07 00:43:51;;;;;;;44.20;30.20;;;;;;;0.44;77.89;97010.63;108712;1253;100059;-69
2023/04/07 00:46:23;;;;;;;40.50;27.60;;;;;;;0.46;77.79;97005.23;108721;1254;95628;-72
2023/04/07 00:48:51;;;;;;;40.00;29.10;;;;;;;0.48;77.82;97001.27;108753;1253;95926;-70
2023/04/07 00:51:22;;;;;;;39.60;28.50;;;;;;;0.49;77.81;97000.98;108789;1253;103680;-70
2023/04/07 00:53:50;;;;;;;36.50;26.70;;;;;;;0.48;77.76;97001.31;108772;1252;101235;-70
2023/04/07 00:56:18;;;;;;;39.20;27.60;;;;;;;0.46;77.73;96997.86;108766;1253;99950;-69
2023/04/07 00:58:47;;;;;;;44.60;30.60;;;;;;;0.43;77.75;96994.64;108745;1252;95556;-70
2023/04/07 01:01:38;;;;;;;40.90;29.10;;;;;;;0.43;77.94;96988.58;108782;1253;96080;-69
2023/04/07 01:04:13;;;;;;;39.00;27.80;;;;;;;0.45;77.95;96990.65;108321;1257;103243;-70
2023/04/07 01:06:48;;;;;;;43.80;32.10;;;;;;;0.49;77.97;96990.06;108325;1257;101442;-69
2023/04/07 01:09:30;;;;;;;43.60;30.40;;;;;;;0.51;77.89;96983.95;108312;1257;99907;-70
2023/04/07 01:12:45;;;;;;;46.30;32.00;;;;;;;0.55;77.85;96977.58;108280;1257;95666;-70
2023/04/07 01:15:14;;;;;;;40.90;30.20;;;;;;;0.56;77.70;96977.65;107958;1263;96072;-71
2023/04/07 01:17:58;;;;;;;44.30;30.30;;;;;;;0.56;77.70;96979.19;107953;1264;103965;-70
2023/04/07 01:20:30;;;;;;;42.70;29.10;;;;;;;0.57;77.64;96977.89;107951;1263;102053;-69
2023/04/07 01:23:04;;;;;;;40.70;29.10;;;;;;;0.57;77.66;96974.54;107838;1264;100175;-69
2023/04/07 01:25:35;;;;;;;44.70;31.70;;;;;;;0.55;77.65;96977.73;107948;1263;95766;-70
2023/04/07 01:28:38;;;;;;;43.70;29.60;;;;;;;0.54;77.69;96980.70;107947;1263;96062;-71
2023/04/07 01:31:09;;;;;;;41.50;29.00;;;;;;;0.52;77.79;96973.77;107637;1270;103713;-70
2023/04/07 01:33:39;;;;;;;43.70;29.10;;;;;;;0.52;77.83;96972.08;107653;1269;101650;-72
2023/04/07 01:36:09;;;;;;;41.50;28.60;;;;;;;0.51;77.84;96972.17;107631;1269;99955;-69
2023/04/07 01:38:39;;;;;;;41.20;29.60;;;;;;;0.49;77.87;96969.92;107632;1269;95621;-70
2023/04/07 01:41:10;;;;;;;43.00;29.30;;;;;;;0.47;77.88;96964.40;107687;1266;96496;-70
2023/04/07 01:43:39;;;;;;;42.60;29.60;;;;;;;0.46;77.95;96969.91;107687;1266;103665;-71
2023/04/07 01:46:08;;;;;;;42.30;30.00;;;;;;;0.46;78.08;96972.36;107906;1265;101584;-71
2023/04/07 01:48:37;;;;;;;37.20;27.90;;;;;;;0.45;77.99;96965.19;107881;1265;100221;-69
2023/04/07 01:51:06;;;;;;;38.70;27.70;;;;;;;0.45;78.06;96971.77;107950;1260;95621;-69
2023/04/07 01:53:36;;;;;;;40.30;29.10;;;;;;;0.44;78.11;96973.58;108170;1260;96135;-71
2023/04/07 01:56:05;;;;;;;42.50;30.40;;;;;;;0.43;78.10;96967.90;108077;1260;103633;-70
2023/04/07 01:58:34;;;;;;;45.50;30.20;;;;;;;0.41;78.08;96968.58;108068;1260;101622;-70
2023/04/07 02:01:02;;;;;;;43.10;30.10;;;;;;;0.41;78.20;96971.04;108186;1260;99939;-71
2023/04/07 02:04:00;;;;;;;38.90;28.50;;;;;;;0.41;78.16;96977.41;108123;1260;95713;-71
2023/04/07 02:06:34;;;;;;;37.30;27.20;;;;;;;0.40;78.30;96981.75;107999;1260;96579;-69
2023/04/07 02:09:07;;;;;;;40.90;30.50;;;;;;;0.42;78.20;96980.54;108226;1258;103904;-70
2023/04/07 02:11:37;;;;;;;53.10;38.40;;;;;;;0.43;78.13;96977.09;108266;1259;101307;-69
2023/04/07 02:14:07;;;;;;;43.70;30.80;;;;;;;0.44;78.22;96976.08;108231;1259;99924;-69
2023/04/07 02:16:36;;;;;;;42.70;29.30;;;;;;;0.42;78.24;96974.69;108247;1258;95646;-70
2023/04/07 02:19:05;;;;;;;37.50;28.10;;;;;;;0.41;78.28;96970.90;108278;1259;96047;-69
2023/04/07 02:21:35;;;;;;;38.70;27.40;;;;;;;0.41;78.32;96962.71;108278;1259;103602;-69
2023/04/07 02:24:06;;;;;;;38.70;28.20;;;;;;;0.43;78.39;96961.66;108267;1259;101530;-70
2023/04/07 02:26:36;;;;;;;37.90;27.20;;;;;;;0.45;78.41;96962.70;108248;1258;100051;-70
2023/04/07 02:29:05;;;;;;;36.90;26.30;;;;;;;0.46;78.47;96961.41;108233;1259;95596;-72
2023/04/07 02:31:33;;;;;;;37.40;26.40;;;;;;;0.49;78.46;96955.88;108265;1258;97036;-70
2023/04/07 02:34:01;;;;;;;38.00;27.20;;;;;;;0.54;78.50;96955.66;108173;1257;103157;-71
2023/04/07 02:36:30;;;;;;;38.80;27.20;;;;;;;0.58;78.51;96953.14;108160;1257;101409;-70
2023/04/07 02:38:58;;;;;;;35.80;26.10;;;;;;;0.58;78.39;96951.07;108206;1257;99595;-72
2023/04/07 02:41:27;;;;;;;38.90;27.30;;;;;;;0.57;78.35;96949.08;108283;1257;95690;-69
2023/04/07 02:43:55;;;;;;;39.20;27.50;;;;;;;0.59;78.37;96947.09;108326;1253;96004;-71
2023/04/07 02:46:23;;;;;;;35.60;25.80;;;;;;;0.61;78.42;96948.45;108420;1253;103632;-71
2023/04/07 02:48:51;;;;;;;35.10;25.80;;;;;;;0.61;78.32;96948.71;108779;1253;101406;-70
2023/04/07 02:51:19;;;;;;;33.30;24.70;;;;;;;0.62;78.37;96949.14;108722;1253;99853;-71
2023/04/07 02:53:47;;;;;;;33.60;24.60;;;;;;;0.64;78.30;96948.29;108715;1253;95692;-69
2023/04/07 02:56:16;;;;;;;32.70;24.10;;;;;;;0.64;78.28;96948.95;108776;1253;96515;-69
2023/04/07 02:58:44;;;;;;;30.30;23.40;;;;;;;0.58;78.27;96945.36;108768;1253;102692;-69
2023/04/07 03:01:12;;;;;;;34.00;24.80;;;;;;;0.53;78.35;96944.13;108781;1253;101291;-69
2023/04/07 03:03:41;;;;;;;35.00;24.40;;;;;;;0.53;78.37;96948.74;108748;1253;99957;-69
2023/04/07 03:06:09;;;;;;;32.70;23.90;;;;;;;0.54;78.32;96947.79;108759;1253;96327;-71
2023/04/07 03:08:37;;;;;;;34.60;22.90;;;;;;;0.54;78.41;96949.48;108424;1254;96026;-69
2023/04/07 03:11:05;;;;;;;33.20;23.70;;;;;;;0.53;78.41;96957.02;108643;1253;104640;-71
2023/04/07 03:13:33;;;;;;;32.50;23.80;;;;;;;0.51;78.39;96959.56;108742;1253;101410;-69
2023/04/07 03:16:01;;;;;;;34.90;22.20;;;;;;;0.49;78.45;96959.76;108688;1253;100097;-70
2023/04/07 03:18:29;;;;;;;31.10;23.30;;;;;;;0.46;78.44;96960.25;108755;1253;95662;-70
2023/04/07 03:20:57;;;;;;;33.30;24.70;;;;;;;0.44;78.57;96958.91;108505;1254;96197;-70
2023/04/07 03:23:27;;;;;;;36.20;26.10;;;;;;;0.41;78.63;96955.48;108390;1253;103293;-70
2023/04/07 03:25:56;;;;;;;33.30;25.40;;;;;;;0.41;78.67;96954.31;108413;1253;100622;-70
2023/04/07 03:28:24;;;;;;;33.90;25.60;;;;;;;0.42;78.62;96950.06;108745;1253;100260;-69
2023/04/07 03:30:52;;;;;;;33.70;24.50;;;;;;;0.44;78.74;96951.41;108749;1253;95567;-70
2023/04/07 03:33:20;;;;;;;38.60;26.20;;;;;;;0.46;78.69;96951.81;108771;1253;96060;-70
2023/04/07 03:35:49;;;;;;;36.00;25.90;;;;;;;0.47;78.65;96946.77;108790;1252;103771;-71
2023/04/07 03:38:17;;;;;;;39.20;27.10;;;;;;;0.47;78.66;96941.23;108770;1252;101359;-68
2023/04/07 03:40:45;;;;;;;36.20;26.70;;;;;;;0.49;78.71;96939.60;108456;1253;100108;-69
2023/04/07 03:43:14;;;;;;;38.70;27.50;;;;;;;0.51;78.67;96946.95;108748;1253;95699;-69
2023/04/07 03:45:42;;;;;;;37.80;27.80;;;;;;;0.54;78.67;96947.03;108812;1252;97075;-70
2023/04/07 03:48:11;;;;;;;40.30;28.40;;;;;;;0.54;78.59;96948.45;108771;1252;103726;-69
2023/04/07 03:50:40;;;;;;;40.40;29.40;;;;;;;0.53;78.63;96957.62;108758;1251;101454;-70
2023/04/07 03:53:08;;;;;;;39.40;28.80;;;;;;;0.51;78.60;96964.51;108787;1252;100059;-70
2023/04/07 03:55:37;;;;;;;40.60;28.30;;;;;;;0.47;78.74;96965.96;108703;1252;95597;-69
2023/04/07 03:58:05;;;;;;;42.60;29.40;;;;;;;0.47;78.73;96968.83;108619;1252;96042;-70
2023/04/07 04:00:34;;;;;;;44.50;29.10;;;;;;;0.49;78.80;96980.16;108812;1252;111140;-69
2023/04/07 04:03:02;;;;;;;41.70;28.60;;;;;;;0.49;78.88;96977.34;108755;1252;101259;-69
2023/04/07 04:05:30;;;;;;;40.60;28.10;;;;;;;0.48;78.84;96973.73;108740;1252;100209;-69
2023/04/07 04:07:58;;;;;;;41.10;28.90;;;;;;;0.47;78.91;96968.83;108749;1251;95689;-69
2023/04/07 04:10:27;;;;;;;45.90;29.80;;;;;;;0.48;79.01;96968.27;108801;1252;96055;-69
2023/04/07 04:12:55;;;;;;;46.50;30.40;;;;;;;0.48;79.02;96965.33;108756;1253;103585;-68
2023/04/07 04:15:23;;;;;;;43.80;30.90;;;;;;;0.51;79.06;96966.00;108797;1252;101476;-68
2023/04/07 04:17:51;;;;;;;45.80;30.50;;;;;;;0.54;79.12;96965.59;108759;1252;100083;-69
2023/04/07 04:20:21;;;;;;;41.50;29.10;;;;;;;0.58;79.10;96960.08;108779;1252;95552;-71
2023/04/07 04:22:49;;;;;;;45.50;32.20;;;;;;;0.62;79.12;96953.23;108773;1252;97060;-69
2023/04/07 04:25:17;;;;;;;50.10;32.60;;;;;;;0.67;79.09;96954.91;108749;1252;103643;-71
2023/04/07 04:27:46;;;;;;;45.50;32.50;;;;;;;0.70;79.13;96963.93;108796;1252;101200;-69
2023/04/07 04:30:14;;;;;;;48.10;32.20;;;;;;;0.72;79.10;96969.71;108764;1252;100221;-69
2023/04/07 04:32:42;;;;;;;45.60;31.40;;;;;;;0.75;79.10;96965.16;108660;1252;95665;-70
2023/04/07 04:35:10;;;;;;;47.10;31.50;;;;;;;0.77;79.03;96968.10;108861;1251;96019;-69
2023/04/07 04:37:39;;;;;;;42.70;29.50;;;;;;;0.79;79.11;96975.55;108884;1251;103757;-69
2023/04/07 04:40:08;;;;;;;43.30;31.30;;;;;;;0.82;79.05;96971.58;108844;1251;100523;-71
2023/04/07 04:42:36;;;;;;;42.50;29.10;;;;;;;0.82;78.94;96972.21;108796;1252;100121;-69
2023/04/07 04:45:04;;;;;;;40.70;28.00;;;;;;;0.83;79.02;96977.66;108841;1253;95610;-69
2023/04/07 04:47:32;;;;;;;45.50;28.30;;;;;;;0.83;78.91;96975.70;108664;1252;96066;-68
2023/04/07 04:50:01;;;;;;;42.70;27.30;;;;;;;0.83;79.06;96975.17;108789;1252;103791;-71
2023/04/07 04:52:29;;;;;;;41.50;27.60;;;;;;;0.84;78.90;96975.54;108872;1252;101088;-68
2023/04/07 04:54:57;;;;;;;35.30;24.40;;;;;;;0.86;78.93;96973.07;108847;1251;99610;-69
2023/04/07 04:57:25;;;;;;;36.80;26.00;;;;;;;0.90;78.99;96970.17;108682;1253;95587;-71
2023/04/07 04:59:53;;;;;;;37.90;27.00;;;;;;;0.95;78.90;96966.80;108789;1253;96534;-69
2023/04/07 05:02:21;;;;;;;41.50;27.60;;;;;;;0.98;78.77;96964.33;108613;1253;103632;-68
2023/04/07 05:04:49;;;;;;;44.00;29.10;;;;;;;0.99;78.81;96961.15;108657;1252;101257;-69
2023/04/07 05:07:17;;;;;;;49.80;35.40;;;;;;;1.01;78.75;96951.55;108815;1253;100207;-69
2023/04/07 05:09:45;;;;;;;52.40;36.50;;;;;;;1.02;78.78;96956.27;108705;1252;95769;-68
2023/04/07 05:12:13;;;;;;;50.80;35.50;;;;;;;1.03;78.78;96962.90;108878;1253;96013;-68
2023/04/07 05:14:41;;;;;;;47.60;33.60;;;;;;;1.01;78.86;96966.61;108845;1252;103837;-68
2023/04/07 05:17:09;;;;;;;45.60;30.80;;;;;;;1.00;78.73;96968.73;108861;1252;100133;-69
2023/04/07 05:19:38;;;;;;;45.00;31.60;;;;;;;0.98;78.70;96975.59;108775;1252;98513;-69
2023/04/07 05:22:06;;;;;;;45.50;30.30;;;;;;;0.97;78.75;96987.06;108634;1253;95910;-69
2023/04/07 05:24:34;;;;;;;45.40;30.90;;;;;;;0.96;78.75;96988.97;108742;1253;96631;-71
2023/04/07 05:27:02;;;;;;;45.60;30.70;;;;;;;0.96;78.79;96986.71;108850;1252;103560;-68
2023/04/07 05:29:30;;;;;;;47.30;30.70;;;;;;;0.97;78.85;96983.73;108846;1253;101288;-69
2023/04/07 05:32:00;;;;;;;47.00;33.90;;;;;;;0.98;78.93;96984.73;108641;1256;100104;-69
2023/04/07 05:34:28;;;;;;;52.30;36.50;;;;;;;0.97;78.92;96987.66;108644;1254;95655;-70
2023/04/07 05:36:56;;;;;;;53.60;35.80;;;;;;;0.96;78.92;96987.33;108405;1254;96046;-68
2023/04/07 05:39:24;;;;;;;49.70;32.60;;;;;;;0.96;78.92;96982.92;108485;1254;102370;-71
2023/04/07 05:41:52;;;;;;;48.70;32.10;;;;;;;1.00;78.98;96983.58;108649;1254;109822;-73
2023/04/07 05:44:20;;;;;;;49.10;32.00;;;;;;;1.03;79.00;96984.52;108625;1254;99505;-71
2023/04/07 05:46:48;;;;;;;48.90;31.60;;;;;;;1.04;78.94;96983.64;108683;1254;95663;-71
2023/04/07 05:49:16;;;;;;;46.80;30.10;;;;;;;1.07;79.02;96981.41;108667;1253;96026;-72
2023/04/07 05:51:44;;;;;;;59.90;33.50;;;;;;;1.13;79.00;96967.75;108703;1254;103058;-71
2023/04/07 05:54:12;;;;;;;76.10;39.90;;;;;;;1.18;78.92;96961.53;108699;1253;101305;-71
2023/04/07 05:56:40;;;;;;;73.30;37.20;;;;;;;1.22;78.88;96960.04;108633;1254;100023;-71
2023/04/07 05:59:09;;;;;;;55.20;30.30;;;;;;;1.25;78.75;96960.56;108635;1253;95591;-68
2023/04/07 06:01:37;;;;;;;59.40;31.90;;;;;;;1.28;78.66;96956.49;108662;1254;96117;-69
2023/04/07 06:04:05;;;;;;;87.10;41.70;;;;;;;1.32;78.56;96953.57;108692;1253;103629;-68
2023/04/07 06:06:33;;;;;;;81.00;40.00;;;;;;;1.36;78.49;96955.63;108685;1254;101266;-68
2023/04/07 06:09:01;;;;;;;65.50;34.90;;;;;;;1.38;78.50;96965.36;108649;1254;99837;-68
2023/04/07 06:11:29;;;;;;;65.30;34.60;;;;;;;1.39;78.46;96977.15;108637;1254;95681;-67
2023/04/07 06:13:57;;;;;;;59.30;34.10;;;;;;;1.37;78.37;96982.48;108464;1254;96625;-69
2023/04/07 06:16:25;;;;;;;63.80;33.60;;;;;;;1.36;78.44;96980.79;108641;1254;103644;-68
2023/04/07 06:18:53;;;;;;;42.70;26.00;;;;;;;1.35;78.51;96977.73;108659;1254;101302;-68
2023/04/07 06:21:21;;;;;;;42.20;26.90;;;;;;;1.31;78.36;96977.41;108670;1254;99072;-69
2023/04/07 06:23:49;;;;;;;41.40;26.20;;;;;;;1.30;78.32;96972.95;108703;1253;95646;-69
2023/04/07 06:26:17;;;;;;;41.50;26.10;;;;;;;1.33;78.40;96967.35;108705;1254;96034;-70
2023/04/07 06:28:46;;;;;;;38.50;26.00;;;;;;;1.35;78.47;96960.34;108677;1253;103725;-68
2023/04/07 06:31:14;;;;;;;44.60;27.70;;;;;;;1.39;78.35;96956.34;108689;1254;101543;-69
2023/04/07 06:33:42;;;;;;;63.10;36.00;;;;;;;1.43;78.29;96961.10;108696;1252;100087;-68
2023/04/07 06:36:10;;;;;;;85.50;42.90;;;;;;;1.40;78.29;96962.28;108638;1253;95642;-68
2023/04/07 06:38:39;;;;;;;87.40;43.50;;;;;;;1.38;78.37;96956.70;108761;1252;96085;-69
2023/04/07 06:41:10;;;;;;;83.30;43.40;;;;;;;1.40;78.34;96959.06;108779;1252;103429;-70
2023/04/07 06:43:38;;;;;;;91.80;47.00;;;;;;;1.43;78.23;96954.28;108825;1252;101323;-69
2023/04/07 06:46:06;;;;;;;67.30;38.30;;;;;;;1.46;78.26;96954.33;108730;1252;100397;-68
2023/04/07 06:48:35;;;;;;;48.50;28.60;;;;;;;1.49;78.30;96957.40;108736;1252;95520;-70
2023/04/07 06:51:03;;;;;;;39.40;25.70;;;;;;;1.49;78.18;96956.73;108780;1252;97102;-68
2023/04/07 06:53:31;;;;;;;35.80;21.80;;;;;;;1.47;78.06;96961.21;108795;1252;103689;-68
2023/04/07 06:56:11;;;;;;;32.10;21.00;;;;;;;1.44;78.08;96961.46;108763;1252;101293;-68
2023/04/07 06:58:39;;;;;;;30.90;21.40;;;;;;;1.45;78.15;96964.70;108738;1251;99969;-69
2023/04/07 07:01:07;;;;;;;35.00;21.30;;;;;;;1.48;78.23;96963.18;108723;1252;95529;-68
2023/04/07 07:03:35;;;;;;;34.90;22.40;;;;;;;1.51;78.19;96967.48;108626;1253;96224;-70
2023/04/07 07:06:04;;;;;;;30.90;20.50;;;;;;;1.53;78.25;96972.91;108740;1252;104153;-70
2023/04/07 07:08:32;;;;;;;31.10;20.10;;;;;;;1.55;78.17;96974.27;108633;1252;101353;-68
2023/04/07 07:11:00;;;;;;;32.20;21.70;;;;;;;1.57;78.19;96969.51;108685;1252;99831;-68
2023/04/07 07:13:28;;;;;;;34.10;22.00;;;;;;;1.59;78.14;96969.40;108754;1252;95515;-69
2023/04/07 07:15:56;;;;;;;34.40;22.40;;;;;;;1.64;78.10;96971.60;108571;1253;96074;-69
2023/04/07 07:18:24;;;;;;;32.10;21.80;;;;;;;1.69;78.04;96971.00;108715;1252;103810;-68
2023/04/07 07:20:52;;;;;;;38.20;23.70;;;;;;;1.74;78.02;96967.91;108770;1252;101200;-71
2023/04/07 07:23:21;;;;;;;46.40;27.10;;;;;;;1.77;77.92;96963.66;108739;1252;100120;-68
2023/04/07 07:25:49;;;;;;;35.50;23.20;;;;;;;1.81;77.86;96964.75;108641;1251;95883;-68
2023/04/07 07:28:17;;;;;;;39.50;25.00;;;;;;;1.87;77.75;96967.50;108713;1252;96003;-68
2023/04/07 07:30:45;;;;;;;34.40;23.40;;;;;;;1.91;77.65;96970.23;108773;1252;103620;-68
2023/04/07 07:33:13;;;;;;;38.60;25.40;;;;;;;1.94;77.52;96970.73;108493;1253;101062;-68
2023/04/07 07:35:41;;;;;;;41.90;26.60;;;;;;;1.98;77.47;96974.58;108765;1252;99938;-68
2023/04/07 07:38:10;;;;;;;37.90;24.20;;;;;;;2.02;77.50;96977.71;108759;1252;95685;-68
2023/04/07 07:40:38;;;;;;;38.70;24.30;;;;;;;2.03;77.37;96978.44;108745;1252;96138;-69
2023/04/07 07:43:06;;;;;;;37.20;24.40;;;;;;;2.05;77.33;96980.90;108559;1252;103211;-70
2023/04/07 07:45:34;;;;;;;32.20;20.70;;;;;;;2.08;77.17;96975.63;108813;1252;101524;-68
2023/04/07 07:48:03;;;;;;;35.60;23.30;;;;;;;2.11;77.14;96975.30;108578;1251;223480;-68
2023/04/07 07:50:31;;;;;;;36.40;22.10;;;;;;;2.10;77.02;96973.56;108744;1251;95550;-68
2023/04/07 07:52:59;;;;;;;39.00;24.40;;;;;;;2.07;76.94;96976.36;108744;1251;96067;-69
2023/04/07 07:55:27;;;;;;;37.40;25.00;;;;;;;2.07;77.07;96980.77;108836;1251;103211;-68
2023/04/07 07:57:55;;;;;;;43.80;27.20;;;;;;;2.08;77.12;96978.45;108841;1252;101559;-69
2023/04/07 08:00:23;;;;;;;40.20;25.50;;;;;;;2.07;77.19;96986.02;108748;1252;99853;-69
2023/04/07 08:02:52;;;;;;;38.80;25.60;;;;;;;2.07;77.16;96987.64;108530;1253;95664;-68
2023/04/07 08:05:20;;;;;;;38.00;24.90;;;;;;;2.08;77.17;96988.77;108793;1251;96073;-68
2023/04/07 08:07:48;;;;;;;36.40;22.40;;;;;;;2.10;77.13;96989.87;108804;1252;103577;-68
2023/04/07 08:10:19;;;;;;;36.90;22.90;;;;;;;2.09;76.95;96987.84;108777;1252;101740;-70
2023/04/07 08:12:47;;;;;;;39.50;24.20;;;;;;;2.08;76.85;96982.19;108775;1252;108223;-71
2023/04/07 08:15:15;;;;;;;35.60;23.00;;;;;;;2.10;76.91;96981.71;108495;1252;95903;-70
2023/04/07 08:17:43;;;;;;;35.30;22.60;;;;;;;2.11;76.89;96980.62;108766;1252;95931;-70
2023/04/07 08:20:11;;;;;;;38.20;23.10;;;;;;;2.07;76.82;96980.79;108780;1252;103627;-70
2023/04/07 08:22:40;;;;;;;38.60;23.60;;;;;;;2.08;76.93;96978.98;108803;1253;101227;-67
2023/04/07 08:25:09;;;;;;;37.30;24.10;;;;;;;2.09;76.88;96981.69;108760;1252;99928;-68
2023/04/07 08:27:39;;;;;;;38.90;23.50;;;;;;;2.05;76.86;96982.98;108750;1252;95673;-70
2023/04/07 08:30:08;;;;;;;37.40;24.00;;;;;;;2.05;77.03;96984.59;108800;1252;96045;-71
2023/04/07 08:32:45;;;;;;;35.10;22.10;;;;;;;2.09;77.02;96987.04;108799;1253;103025;-69
2023/04/07 08:35:13;;;;;;;35.30;21.10;;;;;;;2.11;76.99;96987.02;108781;1253;101243;-70
2023/04/07 08:37:43;;;;;;;30.20;20.60;;;;;;;2.09;76.96;96989.14;108639;1252;98590;-70
2023/04/07 08:40:12;;;;;;;32.00;21.30;;;;;;;2.11;77.06;96986.05;108814;1252;95582;-71
2023/04/07 08:42:43;;;;;;;33.10;22.70;;;;;;;2.16;77.03;96986.41;108810;1252;96110;-71
2023/04/07 08:45:12;;;;;;;31.70;21.50;;;;;;;2.20;76.97;96988.58;108689;1252;103367;-70
2023/04/07 08:47:41;;;;;;;36.30;23.40;;;;;;;2.25;76.97;96988.31;108750;1253;101276;-70
2023/04/07 08:50:11;;;;;;;33.60;21.60;;;;;;;2.29;76.98;96986.61;108744;1252;99961;-70
2023/04/07 08:52:58;;;;;;;30.20;20.00;;;;;;;2.32;76.93;96987.63;108525;1252;96548;-70
2023/04/07 08:55:26;;;;;;;28.50;19.60;;;;;;;2.36;76.82;96985.60;108763;1252;96500;-70
2023/04/07 08:57:55;;;;;;;34.30;21.10;;;;;;;2.39;76.78;96987.73;108820;1251;103662;-70
2023/04/07 09:00:24;;;;;;;34.10;21.30;;;;;;;2.42;76.85;96986.64;108566;1251;100517;-71
2023/04/07 09:02:52;;;;;;;34.70;22.00;;;;;;;2.45;76.83;96985.80;108768;1251;99865;-70
2023/04/07 09:05:23;;;;;;;34.10;22.30;;;;;;;2.49;76.81;96983.84;108786;1252;95519;-71
2023/04/07 09:07:51;;;;;;;28.30;19.30;;;;;;;2.53;76.80;96984.41;108778;1252;95994;-70
2023/04/07 09:10:20;;;;;;;30.70;20.30;;;;;;;2.52;76.72;96983.29;108809;1253;103688;-70
2023/04/07 09:12:48;;;;;;;28.00;19.30;;;;;;;2.54;76.73;96976.79;108807;1252;101799;-71
2023/04/07 09:15:16;;;;;;;28.90;20.30;;;;;;;2.62;76.69;96976.37;108768;1252;100010;-71
2023/04/07 09:17:44;;;;;;;34.20;22.90;;;;;;;2.65;76.70;96975.11;108622;1253;96053;-69
2023/04/07 09:20:13;;;;;;;32.30;19.50;;;;;;;2.67;76.64;96972.86;108761;1252;95943;-69
2023/04/07 09:22:44;;;;;;;33.90;21.00;;;;;;;2.66;76.52;96971.24;108789;1252;103617;-68
2023/04/07 09:25:21;;;;;;;30.40;20.60;;;;;;;2.64;76.63;96971.00;108815;1252;101268;-68
2023/04/07 09:28:00;;;;;;;29.90;19.30;;;;;;;2.71;76.82;96965.14;108637;1253;99884;-70
2023/04/07 09:30:33;;;;;;;32.30;21.30;;;;;;;2.83;76.87;96962.55;108803;1252;95571;-69
2023/04/07 09:33:02;;;;;;;38.40;23.30;;;;;;;2.94;76.92;96965.55;108692;1253;97405;-71
2023/04/07 09:35:30;;;;;;;34.90;23.00;;;;;;;2.99;76.59;96969.90;108829;1252;103452;-70
2023/04/07 09:38:06;;;;;;;38.40;23.10;;;;;;;3.02;76.56;96972.41;108810;1251;101357;-69
2023/04/07 09:40:36;;;;;;;39.90;24.70;;;;;;;3.07;76.62;96967.75;108770;1252;99933;-69
2023/04/07 09:43:06;;;;;;;37.50;23.30;;;;;;;3.13;76.39;96966.76;108782;1251;95544;-69
2023/04/07 09:45:35;;;;;;;35.10;21.60;;;;;;;3.16;76.25;96964.89;108872;1253;95903;-70
2023/04/07 09:48:07;;;;;;;33.80;21.00;;;;;;;3.14;76.10;96964.48;108825;1252;103438;-69
2023/04/07 09:50:39;;;;;;;32.80;21.70;;;;;;;3.11;76.11;96963.40;108830;1252;101330;-69
2023/04/07 09:53:08;;;;;;;29.40;19.50;;;;;;;3.10;76.05;96967.28;108826;1252;99511;-71
2023/04/07 09:55:37;;;;;;;31.00;21.60;;;;;;;3.10;76.17;96967.21;108775;1253;95608;-69
2023/04/07 09:58:07;;;;;;;33.90;20.70;;;;;;;3.13;76.05;96968.95;108834;1252;95989;-69
2023/04/07 10:00:36;;;;;;;34.90;21.50;;;;;;;3.20;76.04;96967.31;108810;1251;103638;-68
2023/04/07 10:03:04;;;;;;;44.40;26.40;;;;;;;3.27;75.92;96963.73;108851;1253;101610;-69
2023/04/07 10:05:34;;;;;;;45.50;25.60;;;;;;;3.29;75.81;96966.88;108765;1253;99833;-69
2023/04/07 10:08:02;;;;;;;47.00;27.40;;;;;;;3.33;75.81;96969.08;108781;1252;95965;-70
2023/04/07 10:10:31;;;;;;;45.00;27.80;;;;;;;3.37;75.75;96963.85;108856;1253;96095;-68
2023/04/07 10:13:00;;;;;;;44.30;26.90;;;;;;;3.34;75.40;96962.70;108828;1253;103648;-70
2023/04/07 10:15:28;;;;;;;40.00;24.40;;;;;;;3.32;75.59;96962.73;108851;1252;101529;-71
2023/04/07 10:17:57;;;;;;;49.40;27.60;;;;;;;3.28;75.44;96962.52;108824;1252;99623;-71
2023/04/07 10:20:26;;;;;;;37.00;22.20;;;;;;;3.22;75.40;96966.20;108802;1251;95540;-69
2023/04/07 10:22:58;;;;;;;38.60;23.90;;;;;;;3.17;75.44;96970.13;108659;1252;96117;-69
2023/04/07 10:25:27;;;;;;;37.80;25.10;;;;;;;3.19;75.54;96972.19;108814;1252;103436;-71
2023/04/07 10:28:04;;;;;;;36.00;24.40;;;;;;;3.23;75.62;96965.56;108537;1253;101196;-71
2023/04/07 10:30:34;;;;;;;33.40;22.00;;;;;;;3.27;75.82;96964.27;108825;1252;100101;-70
2023/04/07 10:33:02;;;;;;;27.10;19.40;;;;;;;3.30;75.82;96964.98;108774;1252;95900;-70
2023/04/07 10:36:06;;;;;;;26.90;18.90;;;;;;;3.34;75.61;96963.80;108821;1251;96454;-68
2023/04/07 10:38:35;;;;;;;27.10;19.30;;;;;;;3.38;75.64;96961.36;108822;1252;103711;-71
2023/04/07 10:41:36;;;;;;;27.90;19.40;;;;;;;3.40;75.67;96958.64;108596;1253;109417;-71
2023/04/07 10:44:08;;;;;;;33.00;22.10;;;;;;;3.42;75.53;96957.83;108826;1252;99497;-72
2023/04/07 10:46:45;;;;;;;32.60;21.60;;;;;;;3.44;75.60;96955.08;108850;1253;95561;-72
2023/04/07 10:49:15;;;;;;;35.60;22.50;;;;;;;3.45;75.57;96952.19;108837;1252;95609;-73
2023/04/07 10:51:44;;;;;;;41.50;27.50;;;;;;;3.47;75.70;96953.00;108815;1252;103248;-73
2023/04/07 10:54:21;;;;;;;49.10;30.80;;;;;;;3.47;75.76;96958.70;108869;1253;101063;-72
2023/04/07 10:57:12;;;;;;;49.60;31.30;;;;;;;3.46;75.67;96955.23;108827;1251;99763;-73
2023/04/07 10:59:45;;;;;;;41.70;26.90;;;;;;;3.45;75.51;96958.25;108851;1255;95551;-71
2023/04/07 11:02:13;;;;;;;41.40;24.20;;;;;;;3.46;75.57;96961.98;108665;1252;96061;-72
2023/04/07 11:04:44;;;;;;;33.00;22.70;;;;;;;3.50;75.65;96961.17;108863;1255;103508;-74
2023/04/07 11:07:14;;;;;;;35.10;23.40;;;;;;;3.51;75.69;96959.78;108848;1252;101166;-73
2023/04/07 11:09:42;;;;;;;37.60;24.00;;;;;;;3.52;75.68;96956.31;108814;1252;99931;-72
2023/04/07 11:12:24;;;;;;;37.40;22.10;;;;;;;3.56;75.77;96954.79;108583;1253;95626;-73
2023/04/07 11:14:52;;;;;;;34.00;20.90;;;;;;;3.58;75.64;96949.68;108640;1252;95692;-73
2023/04/07 11:17:21;;;;;;;34.50;21.00;;;;;;;3.58;75.59;96949.95;108859;1252;104003;-73
2023/04/07 11:19:56;;;;;;;33.40;20.70;;;;;;;3.53;75.60;96954.73;108815;1253;101104;-73
2023/04/07 11:22:25;;;;;;;37.60;23.20;;;;;;;3.54;75.78;96957.70;108805;1253;99720;-73
2023/04/07 11:24:53;;;;;;;35.80;23.60;;;;;;;3.58;75.92;96958.09;108907;1253;95656;-74
2023/04/07 11:27:21;;;;;;;34.10;21.40;;;;;;;3.62;75.77;96958.18;108864;1252;96036;-72